Terminal Aerodrome Forecast
Issued by NWS Shreveport, LA

Home | Current Version | Previous Version | Text Only | Print | Product List | Glossary On
Versions: 1 2 3 4 5 6 7 8 9 10 11 12 13 14 15 16 17 18 19 20
000
FTUS44 KSHV 251100 RRA
TAFGGG
TAF
KGGG 251143Z 2512/2612 00000KT 3SM BR FEW003
     FM251400 18005KT P6SM FEW030 SCT250
     FM260100 17005KT P6SM SKC=

USA.gov is the U.S. government's official web portal to all federal, state and local government web resources and services.